Time;durP1;ratioP1;P1;durP2;ratioP2;P2;SDS_P1;SDS_P2;PMS_P1;PMS_P2;Temp;Humidity;BMP_temperature;BMP_pressure;BME280_temperature;BME280_humidity;BME280_pressure;Samples;Min_cycle;Max_cycle;Signal;HPM_P1;HPM_P2
2021/07/10 00:00:18;;;;;;;16.67;5.10;;;23.60;63.60;;;;;;1935633;74;21453;-49
2021/07/10 00:02:48;;;;;;;11.35;5.40;;;23.50;63.50;;;;;;1935628;74;20995;-50
2021/07/10 00:05:18;;;;;;;12.15;5.25;;;23.50;63.40;;;;;;1935705;74;21023;-48
2021/07/10 00:07:48;;;;;;;11.35;5.85;;;23.50;63.70;;;;;;1935528;74;21023;-51
2021/07/10 00:10:18;;;;;;;13.22;6.00;;;23.50;63.60;;;;;;1935637;74;21081;-50
2021/07/10 00:12:48;;;;;;;8.18;5.05;;;23.40;63.60;;;;;;1909941;74;21051;-48
2021/07/10 00:15:20;;;;;;;10.98;5.58;;;23.30;63.90;;;;;;1935588;74;21075;-48
2021/07/10 00:17:50;;;;;;;14.33;5.92;;;23.30;64.20;;;;;;1935580;74;21025;-51
2021/07/10 00:20:20;;;;;;;8.70;5.30;;;23.20;64.30;;;;;;1935646;74;20999;-51
2021/07/10 00:22:50;;;;;;;12.90;5.78;;;23.10;64.80;;;;;;1935606;74;21027;-49
2021/07/10 00:25:20;;;;;;;12.93;6.78;;;23.10;65.10;;;;;;1935697;74;20991;-51
2021/07/10 00:27:51;;;;;;;23.05;6.67;;;23.10;65.20;;;;;;1935661;74;21043;-51
2021/07/10 00:30:21;;;;;;;9.65;5.45;;;23.10;65.10;;;;;;1935466;74;21084;-50
2021/07/10 00:32:51;;;;;;;30.25;6.78;;;23.00;65.10;;;;;;1935500;74;21027;-48
2021/07/10 00:35:21;;;;;;;8.80;4.72;;;23.00;65.30;;;;;;1935673;74;21023;-48
2021/07/10 00:37:50;;;;;;;8.40;5.78;;;23.00;65.50;;;;;;1935538;74;20995;-48
2021/07/10 00:40:19;;;;;;;13.93;5.78;;;23.00;66.00;;;;;;1935574;74;21019;-49
2021/07/10 00:42:48;;;;;;;10.63;5.37;;;23.00;65.70;;;;;;1935538;74;21031;-49
2021/07/10 00:45:18;;;;;;;7.35;4.78;;;23.00;65.40;;;;;;1935665;74;21051;-52
2021/07/10 00:47:47;;;;;;;10.78;5.30;;;23.00;65.50;;;;;;1935616;74;21043;-48
2021/07/10 00:50:19;;;;;;;9.08;4.90;;;23.00;65.60;;;;;;1942755;73;21019;-51
2021/07/10 00:52:49;;;;;;;11.85;5.53;;;23.00;65.60;;;;;;1943002;73;21034;-49
2021/07/10 00:55:19;;;;;;;15.90;4.95;;;23.00;65.70;;;;;;1943053;74;21019;-48
2021/07/10 00:57:48;;;;;;;8.18;4.97;;;23.00;65.80;;;;;;1943019;74;21031;-49
2021/07/10 01:00:20;;;;;;;12.40;5.28;;;23.00;65.90;;;;;;1943136;74;21088;-48
2021/07/10 01:02:50;;;;;;;11.80;6.05;;;23.10;66.00;;;;;;1943135;74;21077;-51
2021/07/10 01:05:25;;;;;;;7.58;5.90;;;23.10;65.40;;;;;;1943063;73;20999;-50
2021/07/10 01:07:56;;;;;;;10.93;4.60;;;23.10;65.30;;;;;;1942256;74;21074;-51
2021/07/10 01:10:25;;;;;;;14.40;5.65;;;23.00;65.40;;;;;;1942945;73;21042;-49
2021/07/10 01:12:55;;;;;;;11.25;5.50;;;23.00;65.40;;;;;;1942977;74;21062;-48
2021/07/10 01:15:26;;;;;;;13.80;6.62;;;22.90;65.60;;;;;;1943008;74;21058;-49
2021/07/10 01:17:59;;;;;;;10.90;6.03;;;22.90;65.90;;;;;;1943031;74;21023;-50
2021/07/10 01:20:29;;;;;;;13.78;6.30;;;22.80;65.70;;;;;;1943166;74;21080;-48
2021/07/10 01:22:59;;;;;;;11.93;5.70;;;22.70;65.70;;;;;;1943003;74;21026;-49
2021/07/10 01:25:28;;;;;;;10.65;5.78;;;22.70;65.90;;;;;;1943034;74;21026;-48
2021/07/10 01:27:58;;;;;;;9.43;5.40;;;22.60;65.80;;;;;;1943104;74;21030;-49
2021/07/10 01:30:27;;;;;;;9.58;5.10;;;22.60;66.10;;;;;;1943041;73;21100;-48
2021/07/10 01:32:57;;;;;;;10.20;5.25;;;22.60;66.40;;;;;;1942943;74;21018;-49
2021/07/10 01:35:26;;;;;;;6.33;5.30;;;22.60;66.40;;;;;;1942967;74;20998;-49
2021/07/10 01:37:56;;;;;;;8.03;4.65;;;22.60;66.30;;;;;;1942965;74;21027;-51
2021/07/10 01:40:26;;;;;;;12.70;5.83;;;22.60;66.40;;;;;;1942998;74;21034;-48
2021/07/10 01:42:56;;;;;;;6.28;4.78;;;22.60;66.40;;;;;;1943202;74;21077;-49
2021/07/10 01:45:26;;;;;;;9.50;5.20;;;22.50;66.60;;;;;;1943252;74;21047;-51
2021/07/10 01:47:55;;;;;;;12.15;5.70;;;22.50;66.90;;;;;;1943096;74;21026;-50
2021/07/10 01:50:25;;;;;;;10.20;5.35;;;22.50;67.20;;;;;;1937345;73;21102;-50
2021/07/10 01:52:58;;;;;;;10.60;5.85;;;22.50;67.10;;;;;;1935539;74;21067;-48
2021/07/10 01:55:28;;;;;;;8.53;4.90;;;22.40;67.00;;;;;;1935650;74;21027;-49
2021/07/10 01:57:58;;;;;;;11.30;5.58;;;22.40;67.10;;;;;;1935622;74;21097;-50
2021/07/10 02:00:30;;;;;;;9.75;5.35;;;22.40;67.20;;;;;;1935648;74;21140;-49
2021/07/10 02:03:01;;;;;;;9.38;5.58;;;22.40;67.20;;;;;;1935759;74;21039;-51
2021/07/10 02:05:31;;;;;;;10.72;4.83;;;22.30;67.40;;;;;;1935719;74;21023;-50
2021/07/10 02:08:01;;;;;;;10.45;4.95;;;22.30;67.30;;;;;;1935880;74;21085;-49
2021/07/10 02:10:32;;;;;;;9.60;5.05;;;22.30;67.40;;;;;;1935794;74;21019;-52
2021/07/10 02:13:04;;;;;;;11.12;5.03;;;22.20;67.70;;;;;;1935821;74;21160;-49
2021/07/10 02:15:34;;;;;;;7.97;4.97;;;22.20;67.60;;;;;;1935435;74;21094;-51
2021/07/10 02:18:03;;;;;;;5.75;5.15;;;22.10;67.70;;;;;;1935749;74;21027;-49
2021/07/10 02:20:33;;;;;;;13.30;5.70;;;22.10;68.00;;;;;;1935815;74;21109;-49
2021/07/10 02:23:04;;;;;;;7.00;5.45;;;22.00;68.00;;;;;;1935754;74;21477;-48
2021/07/10 02:25:33;;;;;;;10.63;6.05;;;21.90;68.30;;;;;;1935703;74;21101;-51
2021/07/10 02:28:02;;;;;;;9.90;5.67;;;21.90;68.50;;;;;;1935656;74;21023;-48
2021/07/10 02:30:34;;;;;;;19.57;7.08;;;21.80;68.60;;;;;;1935752;74;21088;-50
2021/07/10 02:33:05;;;;;;;14.93;7.33;;;21.80;68.80;;;;;;1935646;74;21019;-48
2021/07/10 02:35:35;;;;;;;14.35;6.45;;;21.80;69.20;;;;;;1935589;74;21053;-50
2021/07/10 02:38:05;;;;;;;9.40;5.87;;;21.90;68.90;;;;;;1935841;74;21104;-48
2021/07/10 02:40:35;;;;;;;13.45;6.12;;;21.90;68.80;;;;;;1935784;74;21093;-49
2021/07/10 02:43:05;;;;;;;12.82;6.33;;;22.00;68.90;;;;;;1935740;74;21104;-49
2021/07/10 02:45:35;;;;;;;19.80;8.08;;;22.00;68.90;;;;;;1935796;74;21018;-47
2021/07/10 02:48:05;;;;;;;13.95;6.08;;;22.10;68.90;;;;;;1935802;74;21073;-48
2021/07/10 02:50:34;;;;;;;16.23;6.90;;;22.10;68.90;;;;;;1943500;74;21156;-48
2021/07/10 02:53:04;;;;;;;12.65;6.30;;;22.20;68.70;;;;;;1948635;73;21076;-48
2021/07/10 02:55:35;;;;;;;10.15;7.45;;;22.30;68.60;;;;;;1948752;73;21531;-49
2021/07/10 02:58:05;;;;;;;18.45;8.60;;;22.30;68.30;;;;;;1948673;74;21118;-49
2021/07/10 03:00:35;;;;;;;11.68;6.72;;;22.30;68.30;;;;;;1948683;74;21050;-47
2021/07/10 03:03:04;;;;;;;15.65;8.65;;;22.30;68.40;;;;;;1948642;74;20995;-51
2021/07/10 03:05:34;;;;;;;17.07;7.08;;;22.30;68.30;;;;;;1948666;74;21014;-51
2021/07/10 03:08:05;;;;;;;18.17;8.15;;;22.30;68.40;;;;;;1948808;74;20999;-49
2021/07/10 03:10:34;;;;;;;16.45;7.72;;;22.30;68.30;;;;;;1948901;74;21092;-51
2021/07/10 03:13:03;;;;;;;13.78;7.40;;;22.30;68.20;;;;;;1948651;74;21092;-49
2021/07/10 03:15:32;;;;;;;13.50;7.50;;;22.30;68.10;;;;;;1948833;74;21105;-52
2021/07/10 03:18:02;;;;;;;13.28;7.87;;;22.30;68.10;;;;;;1948843;74;21023;-48
2021/07/10 03:20:31;;;;;;;15.38;8.43;;;22.20;68.00;;;;;;1948684;74;21066;-51
2021/07/10 03:23:00;;;;;;;13.58;7.45;;;22.20;68.00;;;;;;1948867;74;21433;-50
2021/07/10 03:25:29;;;;;;;14.70;7.60;;;22.20;68.10;;;;;;1948890;73;21030;-49
2021/07/10 03:28:00;;;;;;;10.15;6.95;;;22.10;68.20;;;;;;1948795;74;21050;-51
2021/07/10 03:30:29;;;;;;;14.87;7.20;;;22.20;68.50;;;;;;1948803;74;21084;-49
2021/07/10 03:32:59;;;;;;;11.15;6.55;;;22.20;68.80;;;;;;1948751;74;21027;-51
2021/07/10 03:35:28;;;;;;;16.97;7.90;;;22.10;68.80;;;;;;1948879;74;21108;-51
2021/07/10 03:37:57;;;;;;;11.18;7.60;;;22.20;68.80;;;;;;1948811;74;21038;-49
2021/07/10 03:40:28;;;;;;;10.60;7.62;;;22.30;68.60;;;;;;1948739;74;21035;-51
2021/07/10 03:42:57;;;;;;;11.63;7.85;;;22.30;68.40;;;;;;1948949;74;21092;-51
2021/07/10 03:45:26;;;;;;;18.87;7.80;;;22.30;68.50;;;;;;1948736;74;20994;-51
2021/07/10 03:47:56;;;;;;;20.80;8.10;;;22.30;68.60;;;;;;1948885;74;21026;-48
2021/07/10 03:50:26;;;;;;;11.30;6.83;;;22.30;68.80;;;;;;1945283;74;21199;-48
2021/07/10 03:52:56;;;;;;;13.58;7.67;;;22.30;68.80;;;;;;1935631;74;21073;-52
2021/07/10 03:55:25;;;;;;;12.53;7.50;;;22.30;68.90;;;;;;1935790;74;21079;-51
2021/07/10 03:57:55;;;;;;;11.68;7.10;;;22.40;68.90;;;;;;1935773;74;21082;-49
2021/07/10 04:00:25;;;;;;;9.18;7.45;;;22.50;68.80;;;;;;1935745;74;21485;-51
2021/07/10 04:02:54;;;;;;;9.05;7.90;;;22.60;68.80;;;;;;1935781;74;21093;-51
2021/07/10 04:05:23;;;;;;;9.30;7.17;;;22.60;68.60;;;;;;1935500;74;21479;-50
2021/07/10 04:07:54;;;;;;;15.30;7.80;;;22.70;68.50;;;;;;1935684;74;21049;-48
2021/07/10 04:10:23;;;;;;;19.98;7.90;;;22.80;68.50;;;;;;1935578;74;21101;-51
2021/07/10 04:12:52;;;;;;;12.90;8.70;;;22.80;68.40;;;;;;1935500;74;21058;-51
2021/07/10 04:15:21;;;;;;;16.35;8.15;;;22.90;68.40;;;;;;1935483;74;20999;-51
2021/07/10 04:17:51;;;;;;;17.92;8.65;;;23.00;68.40;;;;;;1935656;74;21019;-52
2021/07/10 04:20:20;;;;;;;43.35;24.72;;;23.00;68.30;;;;;;1935712;74;20999;-50
2021/07/10 04:22:50;;;;;;;17.27;10.03;;;23.10;68.20;;;;;;1935775;74;21027;-50
2021/07/10 04:25:20;;;;;;;22.35;13.78;;;23.30;68.10;;;;;;1935673;74;21096;-51
2021/07/10 04:27:50;;;;;;;23.40;12.88;;;23.40;67.80;;;;;;1935786;74;21007;-52
2021/07/10 04:30:20;;;;;;;24.25;12.85;;;23.60;67.30;;;;;;1935569;74;21030;-51
2021/07/10 04:32:50;;;;;;;20.25;9.75;;;23.70;66.90;;;;;;1935628;74;21101;-50
2021/07/10 04:35:21;;;;;;;19.32;9.73;;;23.70;66.60;;;;;;1935730;74;21096;-51
2021/07/10 04:37:50;;;;;;;14.38;9.75;;;23.80;66.40;;;;;;1935747;74;21097;-50
2021/07/10 04:40:20;;;;;;;12.10;8.23;;;23.90;66.10;;;;;;1935590;74;21085;-51
2021/07/10 04:42:49;;;;;;;15.50;8.58;;;24.00;66.10;;;;;;1935582;74;21031;-51
2021/07/10 04:45:19;;;;;;;27.20;10.80;;;24.10;66.00;;;;;;1935498;74;21023;-51
2021/07/10 04:47:48;;;;;;;19.52;11.65;;;24.30;65.60;;;;;;1935570;74;21175;-51
2021/07/10 04:50:18;;;;;;;19.90;11.48;;;24.40;65.00;;;;;;1935605;74;21028;-52
2021/07/10 04:52:47;;;;;;;15.45;10.15;;;24.40;64.90;;;;;;1935637;74;21116;-51
2021/07/10 04:55:17;;;;;;;21.68;9.80;;;24.40;65.00;;;;;;1935653;74;21035;-47
2021/07/10 04:57:48;;;;;;;14.18;8.55;;;24.40;64.90;;;;;;1935641;74;21015;-51
2021/07/10 05:00:18;;;;;;;17.45;9.53;;;24.50;64.70;;;;;;1935457;74;21047;-50
2021/07/10 05:02:47;;;;;;;14.20;9.45;;;24.60;64.70;;;;;;1935563;74;21035;-51
2021/07/10 05:05:17;;;;;;;23.92;10.95;;;24.70;64.50;;;;;;1935445;74;21625;-52
2021/07/10 05:07:47;;;;;;;16.70;10.58;;;24.80;64.40;;;;;;1935413;74;21030;-49
2021/07/10 05:10:16;;;;;;;17.45;11.68;;;24.90;64.10;;;;;;1935485;74;21102;-51
2021/07/10 05:12:46;;;;;;;20.00;11.25;;;25.00;63.80;;;;;;1935542;74;21171;-51
2021/07/10 05:15:17;;;;;;;20.05;11.97;;;25.10;63.60;;;;;;1935535;74;21334;-51
2021/07/10 05:17:46;;;;;;;21.93;11.57;;;25.10;63.40;;;;;;1935653;74;21062;-51
2021/07/10 05:20:16;;;;;;;14.73;9.60;;;25.20;63.50;;;;;;1935650;74;21070;-52
2021/07/10 05:22:45;;;;;;;14.80;8.98;;;25.40;63.40;;;;;;1935629;74;21128;-51
2021/07/10 05:25:15;;;;;;;19.75;10.78;;;25.40;62.90;;;;;;1935516;74;21027;-50
2021/07/10 05:27:45;;;;;;;18.00;10.98;;;25.50;62.90;;;;;;1935539;74;21027;-51
2021/07/10 05:30:17;;;;;;;20.82;13.20;;;25.60;63.00;;;;;;1935432;74;21030;-51
2021/07/10 05:32:47;;;;;;;29.63;18.82;;;25.60;62.50;;;;;;1935539;74;21129;-50
2021/07/10 05:35:18;;;;;;;21.77;11.93;;;25.80;62.80;;;;;;1935607;74;21069;-52
2021/07/10 05:37:49;;;;;;;15.28;8.13;;;25.90;62.60;;;;;;1935556;74;21035;-51
2021/07/10 05:40:18;;;;;;;28.47;9.80;;;26.00;62.10;;;;;;1935572;74;20999;-51
2021/07/10 05:42:49;;;;;;;15.45;8.75;;;26.00;61.70;;;;;;1935680;74;21089;-51
2021/07/10 05:45:19;;;;;;;17.02;9.28;;;26.00;61.70;;;;;;1935510;74;20999;-50
2021/07/10 05:47:49;;;;;;;17.02;11.78;;;26.10;61.70;;;;;;1935576;74;21023;-51
2021/07/10 05:50:18;;;;;;;10.63;8.08;;;26.10;61.70;;;;;;1935506;74;21097;-50
2021/07/10 05:52:47;;;;;;;16.55;9.73;;;26.10;61.30;;;;;;1935585;74;21067;-51
2021/07/10 05:55:17;;;;;;;19.32;10.38;;;26.20;61.70;;;;;;1935645;74;21519;-50
2021/07/10 05:57:46;;;;;;;25.35;15.25;;;26.20;61.40;;;;;;1935557;74;21027;-52
2021/07/10 06:00:16;;;;;;;13.22;7.95;;;26.30;61.70;;;;;;1935568;74;21023;-50
2021/07/10 06:02:45;;;;;;;11.57;8.68;;;26.40;61.10;;;;;;1935577;74;21043;-51
2021/07/10 06:05:15;;;;;;;11.00;7.30;;;26.40;61.00;;;;;;1935629;74;21105;-50
2021/07/10 06:07:44;;;;;;;10.45;7.22;;;26.60;60.60;;;;;;1935644;74;21035;-48
2021/07/10 06:10:14;;;;;;;15.30;7.50;;;26.70;60.50;;;;;;1935504;74;21015;-49
2021/07/10 06:12:43;;;;;;;16.80;7.95;;;26.80;60.20;;;;;;1935784;74;21027;-50
2021/07/10 06:15:13;;;;;;;12.93;7.85;;;26.90;59.50;;;;;;1935765;74;21027;-48
2021/07/10 06:17:43;;;;;;;12.55;7.37;;;27.00;59.10;;;;;;1935764;74;21092;-51
2021/07/10 06:20:18;;;;;;;13.78;7.87;;;27.00;59.00;;;;;;1935761;74;21101;-50
2021/07/10 06:22:49;;;;;;;9.95;7.60;;;27.10;58.90;;;;;;1935761;74;21030;-48
2021/07/10 06:25:19;;;;;;;12.50;8.55;;;27.10;58.80;;;;;;1935787;74;20995;-49
2021/07/10 06:27:50;;;;;;;14.63;8.33;;;27.10;58.60;;;;;;1935573;74;21077;-49
2021/07/10 06:30:20;;;;;;;13.93;8.38;;;27.10;58.50;;;;;;1935584;74;21022;-49
2021/07/10 06:32:49;;;;;;;26.87;9.13;;;27.10;58.70;;;;;;1935587;74;21110;-51
2021/07/10 06:35:19;;;;;;;18.65;7.37;;;27.10;58.90;;;;;;1935419;74;21023;-48
2021/07/10 06:37:49;;;;;;;10.28;8.73;;;27.10;59.10;;;;;;1935483;74;21027;-49
2021/07/10 06:40:19;;;;;;;11.68;7.97;;;27.20;59.20;;;;;;1935468;74;21084;-51
2021/07/10 06:42:48;;;;;;;15.80;8.43;;;27.30;59.00;;;;;;1935448;74;21079;-51
2021/07/10 06:45:19;;;;;;;13.75;8.08;;;27.40;58.30;;;;;;1935444;74;21042;-50
2021/07/10 06:47:49;;;;;;;18.48;8.88;;;27.40;58.20;;;;;;1935507;74;21074;-50
2021/07/10 06:50:21;;;;;;;10.82;8.53;;;27.50;58.40;;;;;;1935359;74;21027;-50
2021/07/10 06:52:51;;;;;;;11.45;7.97;;;27.60;58.30;;;;;;1942071;74;21019;-51
2021/07/10 06:55:20;;;;;;;15.23;8.05;;;27.60;58.00;;;;;;1948597;73;21019;-52
2021/07/10 06:57:49;;;;;;;13.25;7.53;;;27.70;58.10;;;;;;1948652;74;21074;-51
2021/07/10 07:00:19;;;;;;;12.90;7.83;;;27.80;56.80;;;;;;1948560;74;21086;-49
2021/07/10 07:02:49;;;;;;;16.50;8.93;;;27.70;56.10;;;;;;1948634;74;21023;-50
2021/07/10 07:05:18;;;;;;;12.88;8.90;;;27.70;56.30;;;;;;1948663;73;20994;-50
2021/07/10 07:07:48;;;;;;;12.80;8.90;;;27.70;56.30;;;;;;1948767;74;21032;-50
2021/07/10 07:10:17;;;;;;;12.82;8.35;;;27.70;56.30;;;;;;1948567;74;21014;-50
2021/07/10 07:12:47;;;;;;;13.70;9.80;;;27.80;56.30;;;;;;1948771;73;21135;-51
2021/07/10 07:15:17;;;;;;;10.72;7.97;;;27.90;56.70;;;;;;1948764;74;21047;-52
2021/07/10 07:17:46;;;;;;;14.05;7.70;;;28.00;56.20;;;;;;1948746;74;21069;-48
2021/07/10 07:20:17;;;;;;;11.85;8.38;;;28.10;56.00;;;;;;1948664;74;21074;-50
2021/07/10 07:22:48;;;;;;;13.65;8.38;;;28.20;55.80;;;;;;1948696;74;21030;-51
2021/07/10 07:25:19;;;;;;;16.48;8.40;;;28.20;56.60;;;;;;1948625;73;21105;-50
2021/07/10 07:27:50;;;;;;;10.25;8.03;;;28.30;56.30;;;;;;1948689;74;21077;-51
2021/07/10 07:30:20;;;;;;;22.85;8.68;;;28.40;56.40;;;;;;1948372;74;21027;-51
2021/07/10 07:32:50;;;;;;;16.62;9.18;;;28.40;56.30;;;;;;1948523;74;21023;-48
2021/07/10 07:35:20;;;;;;;10.08;7.97;;;28.50;56.20;;;;;;1948637;74;21023;-50
2021/07/10 07:37:50;;;;;;;9.20;7.60;;;28.60;56.20;;;;;;1948523;73;21034;-51
2021/07/10 07:40:19;;;;;;;11.55;8.00;;;28.70;55.50;;;;;;1948591;74;21086;-51
2021/07/10 07:42:49;;;;;;;13.98;8.25;;;28.70;55.10;;;;;;1948797;74;21022;-50
2021/07/10 07:45:20;;;;;;;13.48;7.80;;;28.80;55.50;;;;;;1948586;74;21023;-51
2021/07/10 07:47:50;;;;;;;11.40;7.35;;;28.90;55.90;;;;;;1948638;74;21493;-50
2021/07/10 07:50:20;;;;;;;20.65;9.68;;;29.00;55.40;;;;;;1948523;73;20994;-51
2021/07/10 07:52:50;;;;;;;13.18;8.65;;;29.00;55.30;;;;;;1945277;73;21108;-51
2021/07/10 07:55:19;;;;;;;12.20;9.15;;;29.00;55.60;;;;;;1935402;74;20995;-51
2021/07/10 07:57:49;;;;;;;10.98;7.65;;;29.00;55.70;;;;;;1935631;74;21035;-51
2021/07/10 08:00:21;;;;;;;15.00;8.05;;;29.10;55.10;;;;;;1935417;74;21150;-51
2021/07/10 08:02:51;;;;;;;8.90;7.83;;;29.10;55.40;;;;;;1935429;74;21078;-50
2021/07/10 08:05:20;;;;;;;13.58;8.00;;;29.20;55.30;;;;;;1935474;74;21097;-51
2021/07/10 08:07:50;;;;;;;10.40;7.72;;;29.20;54.90;;;;;;1935592;74;21023;-48
2021/07/10 08:10:19;;;;;;;13.62;7.75;;;29.20;54.70;;;;;;1935468;74;21027;-48
2021/07/10 08:12:53;;;;;;;16.05;8.48;;;29.30;54.90;;;;;;1935544;74;21012;-49
2021/07/10 08:15:24;;;;;;;11.35;7.50;;;29.30;55.00;;;;;;1935613;74;21023;-50
2021/07/10 08:17:54;;;;;;;9.75;8.03;;;29.40;54.70;;;;;;1935795;74;21046;-50
2021/07/10 08:20:24;;;;;;;13.15;7.95;;;29.40;54.10;;;;;;1935550;74;21120;-51
2021/07/10 08:22:53;;;;;;;15.20;8.03;;;29.50;54.30;;;;;;1935778;74;21074;-49
2021/07/10 08:25:24;;;;;;;12.45;7.90;;;29.50;53.80;;;;;;1935637;74;21093;-51
2021/07/10 08:27:53;;;;;;;14.28;8.30;;;29.60;54.00;;;;;;1935484;74;21018;-51
2021/07/10 08:30:23;;;;;;;16.67;8.80;;;29.60;53.90;;;;;;1935466;74;21023;-51
2021/07/10 08:32:53;;;;;;;18.23;12.00;;;29.70;53.60;;;;;;1935605;74;21058;-52
2021/07/10 08:35:22;;;;;;;13.38;7.97;;;29.70;53.60;;;;;;1935530;74;21092;-51
2021/07/10 08:37:52;;;;;;;20.48;9.23;;;29.80;53.60;;;;;;1935489;74;21088;-50
2021/07/10 08:40:22;;;;;;;12.23;8.43;;;29.90;53.90;;;;;;1935406;74;21110;-51
2021/07/10 08:42:52;;;;;;;14.05;7.70;;;30.00;53.10;;;;;;1935439;74;21031;-52
2021/07/10 08:45:21;;;;;;;11.15;7.45;;;30.00;53.10;;;;;;1935462;74;21023;-51
2021/07/10 08:47:51;;;;;;;9.30;7.55;;;30.10;52.30;;;;;;1935359;74;21030;-51
2021/07/10 08:50:21;;;;;;;16.35;8.58;;;30.10;51.80;;;;;;1935466;74;20995;-52
2021/07/10 08:52:52;;;;;;;17.15;7.58;;;30.10;51.50;;;;;;1935620;73;21116;-51
2021/07/10 08:55:22;;;;;;;14.35;8.65;;;30.20;51.90;;;;;;1942835;74;21030;-51
2021/07/10 08:57:53;;;;;;;11.15;7.92;;;30.30;51.70;;;;;;1943177;74;20995;-51
2021/07/10 09:00:25;;;;;;;13.88;8.15;;;30.30;51.30;;;;;;1942423;74;20999;-51
2021/07/10 09:02:56;;;;;;;13.28;7.95;;;30.50;51.10;;;;;;1942515;74;21039;-51
2021/07/10 09:05:26;;;;;;;13.72;8.30;;;30.50;50.80;;;;;;1943111;74;20995;-51
2021/07/10 09:08:27;;;;;;;13.95;7.92;;;30.50;50.90;;;;;;1943254;74;21066;-51
2021/07/10 09:10:59;;;;;;;13.32;7.22;;;30.60;50.90;;;;;;1943312;74;21066;-51
2021/07/10 09:13:51;;;;;;;15.85;7.53;;;30.70;50.50;;;;;;1943168;74;21484;-52
2021/07/10 09:16:18;;;;;;;10.43;7.45;;;30.80;50.10;;;;;;1941631;74;21143;-48
2021/07/10 09:18:50;;;;;;;9.68;7.33;;;30.80;49.40;;;;;;1943169;74;21023;-51
2021/07/10 09:21:41;;;;;;;17.50;8.28;;;30.90;49.80;;;;;;1943151;74;21080;-51
2021/07/10 09:24:16;;;;;;;15.45;7.95;;;31.00;50.00;;;;;;1943106;74;21047;-52
2021/07/10 09:26:50;;;;;;;9.45;6.60;;;31.00;50.00;;;;;;1907326;74;21034;-51
2021/07/10 09:29:22;;;;;;;14.83;8.10;;;31.10;49.70;;;;;;1943228;74;21084;-51
2021/07/10 09:32:02;;;;;;;13.35;6.72;;;31.10;49.70;;;;;;1943119;74;21519;-52
2021/07/10 09:34:44;;;;;;;10.70;7.50;;;31.10;49.70;;;;;;1943106;74;21112;-48
2021/07/10 09:37:21;;;;;;;11.75;7.72;;;31.10;49.10;;;;;;1943222;74;21035;-52
2021/07/10 09:40:02;;;;;;;9.95;5.85;;;31.20;49.30;;;;;;1943252;74;21022;-50
2021/07/10 09:42:40;;;;;;;11.83;6.65;;;31.20;46.10;;;;;;1943147;74;21030;-51
2021/07/10 09:45:17;;;;;;;9.28;6.08;;;31.30;46.30;;;;;;1943149;74;21105;-50
2021/07/10 09:47:47;;;;;;;10.30;5.95;;;31.40;46.20;;;;;;1943125;74;21038;-48
2021/07/10 09:50:23;;;;;;;18.62;7.85;;;31.50;45.50;;;;;;1943122;74;21088;-49
2021/07/10 09:52:52;;;;;;;9.93;7.65;;;31.70;44.70;;;;;;1943097;74;21092;-51
2021/07/10 09:55:28;;;;;;;11.80;5.90;;;31.80;44.60;;;;;;1937075;74;21047;-51
2021/07/10 09:57:54;;;;;;;14.25;6.47;;;31.80;43.20;;;;;;1934871;74;21508;-50
2021/07/10 10:00:25;;;;;;;10.65;5.70;;;31.90;43.10;;;;;;1935099;74;21113;-51
2021/07/10 10:02:58;;;;;;;14.63;7.22;;;31.90;42.30;;;;;;1935678;74;21097;-51
2021/07/10 10:05:41;;;;;;;8.48;4.95;;;32.00;42.10;;;;;;1935598;74;21137;-51
2021/07/10 10:08:05;;;;;;;11.25;5.37;;;32.10;41.00;;;;;;1933810;74;21023;-51
2021/07/10 10:10:37;;;;;;;6.97;5.33;;;32.00;40.50;;;;;;1935648;74;21035;-50
2021/07/10 10:13:10;;;;;;;8.18;5.17;;;32.00;40.60;;;;;;1935611;74;21233;-51
2021/07/10 10:15:45;;;;;;;9.95;5.80;;;32.00;41.40;;;;;;1935624;74;21077;-51
2021/07/10 10:18:19;;;;;;;10.03;4.92;;;32.00;41.60;;;;;;1935768;74;21061;-50
2021/07/10 10:20:50;;;;;;;8.88;4.95;;;32.10;41.50;;;;;;1935682;74;21004;-51
2021/07/10 10:23:21;;;;;;;13.30;5.40;;;32.20;40.70;;;;;;1935617;74;21027;-51
2021/07/10 10:25:51;;;;;;;12.25;5.50;;;32.30;40.20;;;;;;1935705;74;21055;-50
2021/07/10 10:28:20;;;;;;;6.40;4.97;;;32.30;39.60;;;;;;1935746;74;21092;-51
2021/07/10 10:30:57;;;;;;;11.57;4.62;;;32.30;39.40;;;;;;1935532;74;21019;-51
2021/07/10 10:33:27;;;;;;;11.08;5.72;;;32.40;39.70;;;;;;1935622;74;21054;-51
2021/07/10 10:35:57;;;;;;;5.75;4.75;;;32.40;39.00;;;;;;1935579;74;21081;-51
2021/07/10 10:38:26;;;;;;;9.00;4.67;;;32.40;38.70;;;;;;1935626;74;21027;-48
2021/07/10 10:40:56;;;;;;;9.13;4.67;;;32.50;37.60;;;;;;1935492;74;21081;-50
2021/07/10 10:43:26;;;;;;;6.92;5.90;;;32.50;37.90;;;;;;1935486;74;21027;-51
2021/07/10 10:45:56;;;;;;;8.03;4.45;;;32.50;38.00;;;;;;1935481;74;21097;-51
2021/07/10 10:48:39;;;;;;;8.85;5.10;;;32.50;38.70;;;;;;1935613;74;21108;-51
2021/07/10 10:51:28;;;;;;;10.65;5.00;;;32.60;38.40;;;;;;1935518;74;20996;-51
2021/07/10 10:54:22;;;;;;;11.70;5.83;;;32.70;37.70;;;;;;1935518;74;21465;-49
2021/07/10 10:56:51;;;;;;;8.73;4.87;;;32.80;37.80;;;;;;1948680;74;21120;-51
2021/07/10 10:59:35;;;;;;;5.30;4.08;;;32.70;37.40;;;;;;1948631;74;21022;-50
2021/07/10 11:02:06;;;;;;;9.17;5.00;;;32.70;37.20;;;;;;1949026;73;21542;-50
2021/07/10 11:04:55;;;;;;;13.72;7.10;;;32.70;36.70;;;;;;1943547;74;20979;-52
2021/07/10 11:07:25;;;;;;;8.23;4.85;;;32.80;36.30;;;;;;1948069;74;21039;-51
2021/07/10 11:10:12;;;;;;;6.20;4.03;;;32.80;36.40;;;;;;1948761;74;21030;-52
2021/07/10 11:12:53;;;;;;;8.38;4.67;;;32.80;36.50;;;;;;1948703;73;21030;-51
2021/07/10 11:15:31;;;;;;;8.83;4.78;;;32.90;36.70;;;;;;1948776;74;21449;-51
2021/07/10 11:18:02;;;;;;;8.08;5.03;;;33.00;36.60;;;;;;1948685;74;20983;-52
2021/07/10 11:20:49;;;;;;;9.18;4.33;;;33.10;35.90;;;;;;1947076;74;21528;-48
2021/07/10 11:23:32;;;;;;;5.72;4.60;;;33.00;35.80;;;;;;1948643;74;21010;-51
2021/07/10 11:26:17;;;;;;;6.92;4.85;;;33.10;35.90;;;;;;1948898;74;21043;-51
2021/07/10 11:28:51;;;;;;;6.70;4.40;;;33.10;36.10;;;;;;1948853;74;21096;-52
2021/07/10 11:31:23;;;;;;;7.42;4.25;;;33.20;36.80;;;;;;1948662;73;21014;-52
2021/07/10 11:34:11;;;;;;;10.78;5.35;;;33.30;36.60;;;;;;1948713;74;21011;-51
2021/07/10 11:36:45;;;;;;;7.87;4.75;;;33.30;35.60;;;;;;1948583;74;21027;-51
2021/07/10 11:39:33;;;;;;;5.28;3.92;;;33.30;35.20;;;;;;1948508;73;21500;-52
2021/07/10 11:42:03;;;;;;;8.55;5.15;;;33.30;35.40;;;;;;1948214;74;21042;-51
2021/07/10 11:44:32;;;;;;;12.07;4.42;;;33.30;34.60;;;;;;1943468;74;21160;-52
2021/07/10 11:47:04;;;;;;;14.43;5.65;;;33.30;35.30;;;;;;1948579;74;21119;-52
2021/07/10 11:49:39;;;;;;;8.65;4.50;;;33.30;36.10;;;;;;1948564;74;20979;-51
2021/07/10 11:52:11;;;;;;;6.90;4.20;;;33.40;36.50;;;;;;1948615;74;21124;-51
2021/07/10 11:54:44;;;;;;;6.67;4.33;;;33.50;36.00;;;;;;1948642;74;21026;-51
2021/07/10 11:57:14;;;;;;;7.58;4.70;;;33.60;35.80;;;;;;1948488;73;21031;-52
2021/07/10 11:59:44;;;;;;;7.80;4.17;;;33.60;35.00;;;;;;1948748;74;21116;-54
2021/07/10 12:02:27;;;;;;;7.65;4.92;;;33.60;34.90;;;;;;1948624;74;21091;-53
2021/07/10 12:05:11;;;;;;;6.78;5.28;;;33.60;35.70;;;;;;1948923;74;21043;-52
2021/07/10 12:07:51;;;;;;;7.33;4.40;;;33.70;36.00;;;;;;1948964;74;21013;-53
2021/07/10 12:10:29;;;;;;;6.35;4.15;;;33.60;34.80;;;;;;1948634;74;21023;-52
2021/07/10 12:13:13;;;;;;;12.82;5.12;;;33.50;34.40;;;;;;1948748;74;21026;-51
2021/07/10 12:15:44;;;;;;;15.70;4.30;;;33.50;34.80;;;;;;1948905;74;21105;-52
2021/07/10 12:18:15;;;;;;;9.45;4.60;;;33.50;35.20;;;;;;1948757;74;20994;-53
2021/07/10 12:20:47;;;;;;;13.32;4.50;;;33.50;35.20;;;;;;1948846;74;21135;-53
2021/07/10 12:23:28;;;;;;;8.83;5.28;;;33.50;35.00;;;;;;1948761;74;21039;-53
2021/07/10 12:26:00;;;;;;;10.35;4.62;;;33.50;34.60;;;;;;1948768;73;21124;-53
2021/07/10 12:28:48;;;;;;;15.48;4.95;;;33.50;34.70;;;;;;1948749;74;21042;-53
2021/07/10 12:31:33;;;;;;;4.87;4.12;;;33.50;34.40;;;;;;1948883;74;21521;-51
2021/07/10 12:34:03;;;;;;;;;;;33.50;34.60;;;;;;1951506;74;21128;-53
2021/07/10 12:36:34;;;;;;;6.33;4.28;;;33.50;34.40;;;;;;1948733;74;20105;-54
2021/07/10 12:39:11;;;;;;;6.83;4.10;;;33.50;34.50;;;;;;1948676;74;21026;-54
2021/07/10 12:41:44;;;;;;;8.05;5.15;;;33.40;34.10;;;;;;1948773;74;21100;-52
2021/07/10 12:44:16;;;;;;;6.65;4.95;;;33.40;34.30;;;;;;1948715;74;21015;-52
2021/07/10 12:46:50;;;;;;;6.78;4.70;;;33.40;34.90;;;;;;1948707;74;21027;-54
2021/07/10 12:49:21;;;;;;;12.33;4.72;;;33.40;35.50;;;;;;1948811;74;21038;-52
2021/07/10 12:51:50;;;;;;;4.70;4.03;;;33.50;35.20;;;;;;1948764;74;21085;-52
2021/07/10 12:54:35;;;;;;;7.35;4.10;;;33.50;34.60;;;;;;1948592;74;21092;-51
2021/07/10 12:57:23;;;;;;;;;;;33.50;35.20;;;;;;1941053;74;21051;-51
2021/07/10 13:00:10;;;;;;;11.43;5.10;;;33.50;35.70;;;;;;1935587;74;20101;-52